»·PEaware :: PCM1502 KSAN-KIPL

PCM1502 :: KSAN-KIPL

FLIGHT INFORMATION

Flight Status: Arrived
Operator: Unknown
More flights by this operator :: More flights under this callsign
Pilot: Gregory A. (9731)
Aircraft: BEECH AIRCRAFT SUPER KING AIR 350
(B350)
More flights by this aircraft type
Origin: KSAN San Diego Intl-Lindbergh
United States
Destination: KIPL Imperial Co
United States
More flights between these airports :: More routes between these airports
Route: +BRDR7 IPL
File this flight plan on PilotEdge
Remarks:
Altitude:
(Current/Filed)
160ft
Speed:
(Current/Filed)
280kts
Departed: 03-May-18 05:12 PM
Arrived: 03-May-18 05:45 PM
Distance/Time
Traveled:
82nm/0:33
Distance/Time
To Go:
Arrived

Flight Plot

Page will automatically refresh every two minutes.


Map Options




Map Legend


Flown Route
Filed Route
Departure Airport
Arrival Airport
Navaid (VOR, NDB)
Fix

Horizontal Profiles

Position Reports

Time Latitude Longitude Heading Altitude Ground
Speed
03-May-18 16:50 32.735156 -117.188770 14 19ft 0kts
03-May-18 16:51 32.735156 -117.188770 14 19ft 0kts
03-May-18 16:52 32.735156 -117.188770 14 19ft 0kts
03-May-18 16:53 32.735156 -117.188770 14 19ft 0kts
03-May-18 16:54 32.735156 -117.188770 14 19ft 0kts
03-May-18 16:55 32.735156 -117.188770 14 19ft 0kts
03-May-18 16:56 32.735156 -117.188770 14 19ft 0kts
03-May-18 16:57 32.735156 -117.188770 14 19ft 0kts
03-May-18 16:58 32.735155 -117.188771 14 19ft 0kts
03-May-18 17:00 32.735155 -117.188771 14 19ft 0kts
03-May-18 17:01 32.735154 -117.188771 14 19ft 0kts
03-May-18 17:02 32.735153 -117.188771 14 19ft 0kts
03-May-18 17:03 32.735153 -117.188771 14 19ft 0kts
03-May-18 17:04 32.735152 -117.188772 14 19ft 0kts
03-May-18 17:05 32.735151 -117.188772 14 19ft 0kts
03-May-18 17:06 32.735151 -117.188772 14 19ft 0kts
03-May-18 17:07 32.735024 -117.188419 187 19ft 18kts
03-May-18 17:08 32.733603 -117.184890 104 19ft 22kts
03-May-18 17:09 32.731807 -117.177293 104 19ft 18kts
03-May-18 17:10 32.730902 -117.175258 162 19ft 0kts
03-May-18 17:11 32.730902 -117.175258 162 19ft 0kts
03-May-18 17:12 32.734222 -117.192324 285 84ft 158kts
03-May-18 17:13 32.740715 -117.253435 268 1650ft 207kts
03-May-18 17:14 32.735459 -117.323932 261 3120ft 218kts
03-May-18 17:15 32.723411 -117.395279 265 4611ft 222kts
03-May-18 17:16 32.678465 -117.426269 151 6021ft 233kts
03-May-18 17:17 32.643384 -117.363280 114 7497ft 238kts
03-May-18 17:18 32.623243 -117.287933 95 8964ft 244kts
03-May-18 17:19 32.625035 -117.206684 90 10429ft 246kts
03-May-18 17:20 32.618566 -117.125919 96 11886ft 246kts
03-May-18 17:21 32.614346 -117.044699 96 13340ft 247kts
03-May-18 17:22 32.609184 -116.962552 94 14517ft 257kts
03-May-18 17:23 32.611258 -116.874941 83 14590ft 270kts
03-May-18 17:24 32.622443 -116.786384 83 14593ft 271kts
03-May-18 17:25 32.632176 -116.699321 84 14951ft 267kts
03-May-18 17:26 32.641077 -116.611251 84 14958ft 270kts
03-May-18 17:27 32.649724 -116.522526 85 14964ft 270kts
03-May-18 17:28 32.658265 -116.434052 85 14959ft 270kts
03-May-18 17:29 32.666750 -116.345661 85 14993ft 268kts
03-May-18 17:30 32.675364 -116.251012 85 13274ft 298kts
03-May-18 17:31 32.684158 -116.152289 84 11506ft 300kts
03-May-18 17:32 32.693125 -116.058647 83 11038ft 271kts
03-May-18 17:33 32.701273 -115.977837 84 11008ft 267kts
03-May-18 17:34 32.709877 -115.884764 84 9266ft 291kts
03-May-18 17:35 32.718566 -115.788743 84 7500ft 290kts
03-May-18 17:36 32.727499 -115.694772 83 5737ft 283kts
03-May-18 17:37 32.739829 -115.604018 74 3976ft 272kts
03-May-18 17:38 32.742024 -115.515638 91 2251ft 263kts
03-May-18 17:39 32.748992 -115.434295 84 2055ft 239kts
03-May-18 17:40 32.716504 -115.381101 184 2011ft 229kts
03-May-18 17:41 32.686693 -115.439470 272 2007ft 229kts
03-May-18 17:42 32.723376 -115.498558 318 2054ft 228kts
03-May-18 17:43 32.770660 -115.538631 332 1587ft 170kts
03-May-18 17:44 32.814057 -115.561560 330 470ft 168kts
03-May-18 17:45 32.839309 -115.576860 131 -51ft 9kts

Navigation Log

Ident Type
1. KSAN Airport
2. PGY Navaid
3. BROWS Fix
4. IPL Navaid
5. KIPL Airport